Архив погоды в Кумене

Метеограмма Кумены
Вторник, 19 Июня
Время местн. Темп Ветер Видим Явления Облачность нижн/средн/верх Атм. давл. Влжн Точка росы ВНГО R Сост. почвы Tg s
Напр Скр Прв ур.ст ур.м изм
00:00 +13.7° штиль 0 0 20 км - переменная облачность 743 759 +0.2 72% +8.8° более 2.5 км - - - -
Понедельник, 18 Июня
Время местн. Темп Ветер Видим Явления Облачность нижн/средн/верх Атм. давл. Влжн Точка росы ВНГО R Сост. почвы Tg s
Напр Скр Прв ур.ст ур.м изм
21:00 +20.2° штиль 0 6 35 км - ясно 743 758 -0.3 43% +7.3° более 2.5 км - - - -
18:00 +25.4° С 4 11 20 км - ясно 743 758 -0.5 29% +6.1° более 2.5 км 0 - - -
15:00 +25.7° С 6 10 20 км - ясно 744 759 -0.3 26% +4.8° более 2.5 км - - - -
12:00 +24.2° С,С-З 5 10 20 км - ясно 744 759 -1 28% +4.6° более 2.5 км - - - -
09:00 +21.5° С,С-З 4 7 20 км - облачно с прояснениями 745 760 -0.8 40% +7.4° более 2.5 км - - - -
06:00 +13.3° З,С-З 1 1 20 км - переменная облачность 746 762 0 68% +7.6° более 2.5 км - Сухая (без трещин) - -
03:00 +8.4° штиль 0 0 20 км - переменная облачность 746 762 -0.1 89% +6.7° более 2.5 км - - - -
00:00 +11.2° Ю-З 1 1 10 км - ясно 746 762 +0.3 73% +6.5° более 2.5 км - - - -
Воскресенье, 17 Июня
Время местн. Темп Ветер Видим Явления Облачность нижн/средн/верх Атм. давл. Влжн Точка росы ВНГО R Сост. почвы Tg s
Напр Скр Прв ур.ст ур.м изм
21:00 +17.9° штиль 0 0 35 км - ясно 746 761 -0.1 37% +3° более 2.5 км - - - -
18:00 +22.6° С,С-З 4 7 35 км - ясно 746 761 -0.6 33% +5.5° более 2.5 км - - - -
15:00 +22.2° С 5 9 20 км - переменная облачность 746 762 -0.4 34% +5.5° - - - - -
12:00 +20.4° С,С-З 4 9 20 км - незначительная облачность 747 762 -0.7 37% +5.1° более 2.5 км - - - -
09:00 +18.2° С 3 7 20 км - ясно 747 763 +0.1 46% +6.5° более 2.5 км - - - -
06:00 +11.5° С-З 2 3 20 км - ясно 747 763 +0.1 68% +5.8° более 2.5 км - Сухая (без трещин) - -
03:00 +7.2° штиль 0 0 20 км - ясно 747 763 -0.1 77% +3.4° более 2.5 км - - - -
00:00 +9° З 1 1 20 км - облачно с прояснениями 747 763 0 70% +3.8° более 2.5 км - - - -
Суббота, 16 Июня
Время местн. Темп Ветер Видим Явления Облачность нижн/средн/верх Атм. давл. Влжн Точка росы ВНГО R Сост. почвы Tg s
Напр Скр Прв ур.ст ур.м изм
21:00 +15.1° С-З 1 7 30 км - незначительная облачность 747 763 -0.2 40% +1.7° более 2.5 км - - - -
18:00 +19.2° С 4 11 20 км - ясно 747 763 -0.1 31% +1.7° более 2.5 км 0 - - -
15:00 +19.2° С 4 10 20 км - переменная облачность 747 763 -0.2 35% +3.2° более 2.5 км - - - -
12:00 +17.4° С 5 10 20 км - ясно 748 763 -0.2 39% +3.4° более 2.5 км - - - -
09:00 +14.3° С,С-З 4 6 20 км - ясно 748 764 +0.2 47% +3.2° более 2.5 км - - - -
06:00 +7.3° С-З 2 4 20 км - переменная облачность 748 764 +0.5 72% +2.5° более 2.5 км - Влажная (без луж) - -
03:00 +5.4° С-З 1 3 20 км - переменная облачность 747 764 0 75% +1.4° более 2.5 км - - - -
00:00 +7.8° С-З 1 2 20 км - переменная облачность 747 763 +0.3 59% +0.4° более 2.5 км - - - -
Пятница, 15 Июня
Время местн. Темп Ветер Видим Явления Облачность нижн/средн/верх Атм. давл. Влжн Точка росы ВНГО R Сост. почвы Tg s
Напр Скр Прв ур.ст ур.м изм
21:00 +10.9° З,С-З 1 2 20 км - переменная облачность 747 763 0 48% +0.2° - - - - -